sensor_id;sensor_type;location;lat;lon;timestamp;temperature;humidity
70003;DHT22;57341;51.984;5.088;2022-07-18T00:02:13;18.20;75.80
70003;DHT22;57341;51.984;5.088;2022-07-18T00:04:41;18.10;75.80
70003;DHT22;57341;51.984;5.088;2022-07-18T00:07:08;18.10;75.80
70003;DHT22;57341;51.984;5.088;2022-07-18T00:09:38;18.00;75.70
70003;DHT22;57341;51.984;5.088;2022-07-18T00:12:07;17.90;75.80
70003;DHT22;57341;51.984;5.088;2022-07-18T00:14:34;17.90;76.00
70003;DHT22;57341;51.984;5.088;2022-07-18T00:17:02;17.80;76.30
70003;DHT22;57341;51.984;5.088;2022-07-18T00:19:30;17.70;76.80
70003;DHT22;57341;51.984;5.088;2022-07-18T00:21:58;17.70;77.00
70003;DHT22;57341;51.984;5.088;2022-07-18T00:24:25;17.70;77.10
70003;DHT22;57341;51.984;5.088;2022-07-18T00:26:52;17.60;77.50
70003;DHT22;57341;51.984;5.088;2022-07-18T00:29:19;17.50;77.90
70003;DHT22;57341;51.984;5.088;2022-07-18T00:31:46;17.50;77.90
70003;DHT22;57341;51.984;5.088;2022-07-18T00:34:13;17.50;77.90
70003;DHT22;57341;51.984;5.088;2022-07-18T00:36:40;17.40;78.20
70003;DHT22;57341;51.984;5.088;2022-07-18T00:39:07;17.40;78.60
70003;DHT22;57341;51.984;5.088;2022-07-18T00:41:34;17.30;78.90
70003;DHT22;57341;51.984;5.088;2022-07-18T00:44:01;17.40;79.20
70003;DHT22;57341;51.984;5.088;2022-07-18T00:46:29;17.50;79.10
70003;DHT22;57341;51.984;5.088;2022-07-18T00:48:56;17.60;79.00
70003;DHT22;57341;51.984;5.088;2022-07-18T00:51:23;17.50;78.80
70003;DHT22;57341;51.984;5.088;2022-07-18T00:53:50;17.60;78.90
70003;DHT22;57341;51.984;5.088;2022-07-18T00:56:19;17.60;78.80
70003;DHT22;57341;51.984;5.088;2022-07-18T00:58:46;17.60;78.80
70003;DHT22;57341;51.984;5.088;2022-07-18T01:01:13;17.70;78.60
70003;DHT22;57341;51.984;5.088;2022-07-18T01:03:59;17.60;78.70
70003;DHT22;57341;51.984;5.088;2022-07-18T01:06:26;17.60;78.90
70003;DHT22;57341;51.984;5.088;2022-07-18T01:08:53;17.60;78.80
70003;DHT22;57341;51.984;5.088;2022-07-18T01:11:20;17.50;78.70
70003;DHT22;57341;51.984;5.088;2022-07-18T01:13:49;17.50;79.00
70003;DHT22;57341;51.984;5.088;2022-07-18T01:16:16;17.60;79.00
70003;DHT22;57341;51.984;5.088;2022-07-18T01:18:45;17.50;78.70
70003;DHT22;57341;51.984;5.088;2022-07-18T01:21:13;17.50;78.90
70003;DHT22;57341;51.984;5.088;2022-07-18T01:23:40;17.40;79.20
70003;DHT22;57341;51.984;5.088;2022-07-18T01:26:09;17.40;79.10
70003;DHT22;57341;51.984;5.088;2022-07-18T01:28:36;17.40;79.20
70003;DHT22;57341;51.984;5.088;2022-07-18T01:31:03;17.40;79.60
70003;DHT22;57341;51.984;5.088;2022-07-18T01:33:32;17.30;79.70
70003;DHT22;57341;51.984;5.088;2022-07-18T01:36:00;17.40;79.80
70003;DHT22;57341;51.984;5.088;2022-07-18T01:38:28;17.40;79.90
70003;DHT22;57341;51.984;5.088;2022-07-18T01:40:55;17.40;80.50
70003;DHT22;57341;51.984;5.088;2022-07-18T01:43:26;17.40;79.70
70003;DHT22;57341;51.984;5.088;2022-07-18T01:45:54;17.30;79.70
70003;DHT22;57341;51.984;5.088;2022-07-18T01:48:22;17.30;79.70
70003;DHT22;57341;51.984;5.088;2022-07-18T01:50:52;17.30;79.70
70003;DHT22;57341;51.984;5.088;2022-07-18T01:53:19;17.30;79.70
70003;DHT22;57341;51.984;5.088;2022-07-18T01:55:46;17.30;79.90
70003;DHT22;57341;51.984;5.088;2022-07-18T01:58:13;17.20;80.00
70003;DHT22;57341;51.984;5.088;2022-07-18T02:00:41;17.30;80.00
70003;DHT22;57341;51.984;5.088;2022-07-18T02:03:08;17.20;79.80
70003;DHT22;57341;51.984;5.088;2022-07-18T02:05:35;17.20;80.10
70003;DHT22;57341;51.984;5.088;2022-07-18T02:08:02;17.20;80.20
70003;DHT22;57341;51.984;5.088;2022-07-18T02:10:29;17.30;80.30
70003;DHT22;57341;51.984;5.088;2022-07-18T02:12:56;17.30;80.00
70003;DHT22;57341;51.984;5.088;2022-07-18T02:15:23;17.30;79.60
70003;DHT22;57341;51.984;5.088;2022-07-18T02:17:50;17.30;79.60
70003;DHT22;57341;51.984;5.088;2022-07-18T02:20:17;17.30;79.70
70003;DHT22;57341;51.984;5.088;2022-07-18T02:22:44;17.20;79.90
70003;DHT22;57341;51.984;5.088;2022-07-18T02:25:12;17.10;80.10
70003;DHT22;57341;51.984;5.088;2022-07-18T02:27:39;17.20;80.60
70003;DHT22;57341;51.984;5.088;2022-07-18T02:30:07;17.10;80.80
70003;DHT22;57341;51.984;5.088;2022-07-18T02:32:35;17.10;80.60
70003;DHT22;57341;51.984;5.088;2022-07-18T02:35:08;17.10;80.70
70003;DHT22;57341;51.984;5.088;2022-07-18T02:37:37;17.10;80.40
70003;DHT22;57341;51.984;5.088;2022-07-18T02:40:07;17.00;81.30
70003;DHT22;57341;51.984;5.088;2022-07-18T02:42:35;17.00;80.80
70003;DHT22;57341;51.984;5.088;2022-07-18T02:45:03;17.00;81.50
70003;DHT22;57341;51.984;5.088;2022-07-18T02:47:30;17.00;81.60
70003;DHT22;57341;51.984;5.088;2022-07-18T02:49:57;17.00;81.40
70003;DHT22;57341;51.984;5.088;2022-07-18T02:52:24;17.00;80.80
70003;DHT22;57341;51.984;5.088;2022-07-18T02:54:51;17.00;81.00
70003;DHT22;57341;51.984;5.088;2022-07-18T02:57:17;17.00;81.50
70003;DHT22;57341;51.984;5.088;2022-07-18T02:59:44;16.90;81.60
70003;DHT22;57341;51.984;5.088;2022-07-18T03:02:12;16.90;81.30
70003;DHT22;57341;51.984;5.088;2022-07-18T03:04:39;16.90;81.50
70003;DHT22;57341;51.984;5.088;2022-07-18T03:07:06;16.90;81.50
70003;DHT22;57341;51.984;5.088;2022-07-18T03:09:33;16.80;81.80
70003;DHT22;57341;51.984;5.088;2022-07-18T03:11:59;16.80;82.00
70003;DHT22;57341;51.984;5.088;2022-07-18T03:14:26;16.80;82.20
70003;DHT22;57341;51.984;5.088;2022-07-18T03:16:53;16.70;82.30
70003;DHT22;57341;51.984;5.088;2022-07-18T03:19:20;16.70;82.30
70003;DHT22;57341;51.984;5.088;2022-07-18T03:21:47;16.70;82.50
70003;DHT22;57341;51.984;5.088;2022-07-18T03:24:14;16.70;83.50
70003;DHT22;57341;51.984;5.088;2022-07-18T03:26:41;16.80;82.80
70003;DHT22;57341;51.984;5.088;2022-07-18T03:29:09;16.80;82.50
70003;DHT22;57341;51.984;5.088;2022-07-18T03:31:37;16.80;82.70
70003;DHT22;57341;51.984;5.088;2022-07-18T03:34:04;16.80;82.50
70003;DHT22;57341;51.984;5.088;2022-07-18T03:36:31;16.90;82.40
70003;DHT22;57341;51.984;5.088;2022-07-18T03:38:59;16.80;82.30
70003;DHT22;57341;51.984;5.088;2022-07-18T03:41:26;16.80;82.30
70003;DHT22;57341;51.984;5.088;2022-07-18T03:43:53;16.80;82.30
70003;DHT22;57341;51.984;5.088;2022-07-18T03:46:20;16.80;82.30
70003;DHT22;57341;51.984;5.088;2022-07-18T03:48:48;16.80;82.30
70003;DHT22;57341;51.984;5.088;2022-07-18T03:51:15;16.80;82.30
70003;DHT22;57341;51.984;5.088;2022-07-18T03:53:42;16.80;82.40
70003;DHT22;57341;51.984;5.088;2022-07-18T03:56:09;16.80;82.40
70003;DHT22;57341;51.984;5.088;2022-07-18T03:58:36;16.80;82.40
70003;DHT22;57341;51.984;5.088;2022-07-18T04:01:03;16.90;82.40
70003;DHT22;57341;51.984;5.088;2022-07-18T04:03:30;16.80;82.30
70003;DHT22;57341;51.984;5.088;2022-07-18T04:05:57;16.90;82.40
70003;DHT22;57341;51.984;5.088;2022-07-18T04:08:24;17.00;82.30
70003;DHT22;57341;51.984;5.088;2022-07-18T04:10:51;17.00;82.30
70003;DHT22;57341;51.984;5.088;2022-07-18T04:13:18;17.00;82.20
70003;DHT22;57341;51.984;5.088;2022-07-18T04:15:45;17.00;82.20
70003;DHT22;57341;51.984;5.088;2022-07-18T04:18:12;17.10;82.30
70003;DHT22;57341;51.984;5.088;2022-07-18T04:20:39;17.20;82.70
70003;DHT22;57341;51.984;5.088;2022-07-18T04:23:08;17.40;82.90
70003;DHT22;57341;51.984;5.088;2022-07-18T04:25:40;17.60;82.40
70003;DHT22;57341;51.984;5.088;2022-07-18T04:28:10;17.90;81.80
70003;DHT22;57341;51.984;5.088;2022-07-18T04:30:37;18.20;80.90
70003;DHT22;57341;51.984;5.088;2022-07-18T04:33:05;18.50;79.90
70003;DHT22;57341;51.984;5.088;2022-07-18T04:35:33;18.80;78.30
70003;DHT22;57341;51.984;5.088;2022-07-18T04:38:03;19.10;77.30
70003;DHT22;57341;51.984;5.088;2022-07-18T04:40:30;19.40;77.50
70003;DHT22;57341;51.984;5.088;2022-07-18T04:42:57;19.60;74.50
70003;DHT22;57341;51.984;5.088;2022-07-18T04:45:24;19.80;73.20
70003;DHT22;57341;51.984;5.088;2022-07-18T04:47:53;20.00;72.10
70003;DHT22;57341;51.984;5.088;2022-07-18T04:50:20;20.30;70.70
70003;DHT22;57341;51.984;5.088;2022-07-18T04:52:49;20.60;69.30
70003;DHT22;57341;51.984;5.088;2022-07-18T04:55:17;20.80;67.60
70003;DHT22;57341;51.984;5.088;2022-07-18T04:57:44;21.10;66.00
70003;DHT22;57341;51.984;5.088;2022-07-18T05:00:15;21.30;64.50
70003;DHT22;57341;51.984;5.088;2022-07-18T05:02:45;21.50;63.60
70003;DHT22;57341;51.984;5.088;2022-07-18T05:05:13;21.70;62.70
70003;DHT22;57341;51.984;5.088;2022-07-18T05:07:42;21.70;61.90
70003;DHT22;57341;51.984;5.088;2022-07-18T05:10:11;21.80;61.40
70003;DHT22;57341;51.984;5.088;2022-07-18T05:12:39;21.90;60.80
70003;DHT22;57341;51.984;5.088;2022-07-18T05:15:12;22.00;61.30
70003;DHT22;57341;51.984;5.088;2022-07-18T05:17:40;22.10;60.80
70003;DHT22;57341;51.984;5.088;2022-07-18T05:20:11;22.30;61.60
70003;DHT22;57341;51.984;5.088;2022-07-18T05:22:39;22.50;61.10
70003;DHT22;57341;51.984;5.088;2022-07-18T05:25:07;22.90;61.00
70003;DHT22;57341;51.984;5.088;2022-07-18T05:27:35;23.20;59.20
70003;DHT22;57341;51.984;5.088;2022-07-18T05:30:05;23.60;58.00
70003;DHT22;57341;51.984;5.088;2022-07-18T05:32:33;23.90;56.50
70003;DHT22;57341;51.984;5.088;2022-07-18T05:35:01;24.40;54.20
70003;DHT22;57341;51.984;5.088;2022-07-18T05:37:28;24.70;52.60
70003;DHT22;57341;51.984;5.088;2022-07-18T05:39:55;25.10;51.30
70003;DHT22;57341;51.984;5.088;2022-07-18T05:42:22;25.30;50.00
70003;DHT22;57341;51.984;5.088;2022-07-18T05:45:10;25.60;49.30
70003;DHT22;57341;51.984;5.088;2022-07-18T05:47:38;25.80;48.20
70003;DHT22;57341;51.984;5.088;2022-07-18T05:50:06;25.90;47.30
70003;DHT22;57341;51.984;5.088;2022-07-18T05:52:33;26.00;46.60
70003;DHT22;57341;51.984;5.088;2022-07-18T05:55:06;25.90;46.50
70003;DHT22;57341;51.984;5.088;2022-07-18T05:57:34;25.70;46.30
70003;DHT22;57341;51.984;5.088;2022-07-18T06:00:04;25.50;46.60
70003;DHT22;57341;51.984;5.088;2022-07-18T06:02:34;25.30;47.10
70003;DHT22;57341;51.984;5.088;2022-07-18T06:05:06;25.10;47.90
70003;DHT22;57341;51.984;5.088;2022-07-18T06:07:52;25.10;48.30
70003;DHT22;57341;51.984;5.088;2022-07-18T06:10:20;25.10;48.50
70003;DHT22;57341;51.984;5.088;2022-07-18T06:12:48;25.00;48.60
70003;DHT22;57341;51.984;5.088;2022-07-18T06:15:17;25.00;49.10
70003;DHT22;57341;51.984;5.088;2022-07-18T06:17:44;25.00;49.00
70003;DHT22;57341;51.984;5.088;2022-07-18T06:20:11;25.00;49.20
70003;DHT22;57341;51.984;5.088;2022-07-18T06:22:38;25.10;49.50
70003;DHT22;57341;51.984;5.088;2022-07-18T06:25:06;25.40;49.10
70003;DHT22;57341;51.984;5.088;2022-07-18T06:27:33;25.80;47.80
70003;DHT22;57341;51.984;5.088;2022-07-18T06:30:03;26.10;47.50
70003;DHT22;57341;51.984;5.088;2022-07-18T06:32:31;26.30;46.80
70003;DHT22;57341;51.984;5.088;2022-07-18T06:34:58;26.60;45.90
70003;DHT22;57341;51.984;5.088;2022-07-18T06:37:24;26.80;45.40
70003;DHT22;57341;51.984;5.088;2022-07-18T06:39:51;27.10;44.90
70003;DHT22;57341;51.984;5.088;2022-07-18T06:42:19;27.50;44.00
70003;DHT22;57341;51.984;5.088;2022-07-18T06:44:46;27.60;43.70
70003;DHT22;57341;51.984;5.088;2022-07-18T06:47:14;27.80;43.20
70003;DHT22;57341;51.984;5.088;2022-07-18T06:49:41;28.10;42.80
70003;DHT22;57341;51.984;5.088;2022-07-18T06:52:07;28.20;42.30
70003;DHT22;57341;51.984;5.088;2022-07-18T06:54:38;28.30;41.90
70003;DHT22;57341;51.984;5.088;2022-07-18T06:57:07;28.30;41.40
70003;DHT22;57341;51.984;5.088;2022-07-18T06:59:36;28.10;42.00
70003;DHT22;57341;51.984;5.088;2022-07-18T07:02:03;28.20;43.40
70003;DHT22;57341;51.984;5.088;2022-07-18T07:04:31;28.60;42.20
70003;DHT22;57341;51.984;5.088;2022-07-18T07:06:58;28.90;41.40
70003;DHT22;57341;51.984;5.088;2022-07-18T07:09:25;29.20;40.80
70003;DHT22;57341;51.984;5.088;2022-07-18T07:11:52;29.20;40.30
70003;DHT22;57341;51.984;5.088;2022-07-18T07:14:19;29.10;39.20
70003;DHT22;57341;51.984;5.088;2022-07-18T07:16:46;28.80;40.70
70003;DHT22;57341;51.984;5.088;2022-07-18T07:19:13;28.80;40.80
70003;DHT22;57341;51.984;5.088;2022-07-18T07:21:40;29.10;40.90
70003;DHT22;57341;51.984;5.088;2022-07-18T07:24:07;29.40;40.40
70003;DHT22;57341;51.984;5.088;2022-07-18T07:26:34;29.60;39.40
70003;DHT22;57341;51.984;5.088;2022-07-18T07:29:01;29.60;39.10
70003;DHT22;57341;51.984;5.088;2022-07-18T07:31:28;29.40;39.10
70003;DHT22;57341;51.984;5.088;2022-07-18T07:33:56;29.10;38.90
70003;DHT22;57341;51.984;5.088;2022-07-18T07:36:29;29.00;40.10
70003;DHT22;57341;51.984;5.088;2022-07-18T07:38:56;29.00;39.50
70003;DHT22;57341;51.984;5.088;2022-07-18T07:41:24;29.00;40.30
70003;DHT22;57341;51.984;5.088;2022-07-18T07:43:51;29.30;39.70
70003;DHT22;57341;51.984;5.088;2022-07-18T07:46:18;29.50;39.90
70003;DHT22;57341;51.984;5.088;2022-07-18T07:48:45;29.80;39.50
70003;DHT22;57341;51.984;5.088;2022-07-18T07:51:14;29.90;38.30
70003;DHT22;57341;51.984;5.088;2022-07-18T07:53:41;29.90;38.90
70003;DHT22;57341;51.984;5.088;2022-07-18T07:56:08;29.90;38.60
70003;DHT22;57341;51.984;5.088;2022-07-18T07:58:35;30.20;38.90
70003;DHT22;57341;51.984;5.088;2022-07-18T08:01:02;30.60;38.10
70003;DHT22;57341;51.984;5.088;2022-07-18T08:03:29;30.90;37.80
70003;DHT22;57341;51.984;5.088;2022-07-18T08:05:57;31.30;37.50
70003;DHT22;57341;51.984;5.088;2022-07-18T08:08:24;31.70;36.90
70003;DHT22;57341;51.984;5.088;2022-07-18T08:10:52;32.20;35.90
70003;DHT22;57341;51.984;5.088;2022-07-18T08:13:20;32.30;34.70
70003;DHT22;57341;51.984;5.088;2022-07-18T08:15:47;32.30;34.80
70003;DHT22;57341;51.984;5.088;2022-07-18T08:18:14;32.50;35.00
70003;DHT22;57341;51.984;5.088;2022-07-18T08:20:41;32.70;34.90
70003;DHT22;57341;51.984;5.088;2022-07-18T08:23:09;33.00;34.60
70003;DHT22;57341;51.984;5.088;2022-07-18T08:25:39;33.40;34.50
70003;DHT22;57341;51.984;5.088;2022-07-18T08:28:06;34.00;33.30
70003;DHT22;57341;51.984;5.088;2022-07-18T08:30:34;34.40;32.10
70003;DHT22;57341;51.984;5.088;2022-07-18T08:33:01;34.20;31.70
70003;DHT22;57341;51.984;5.088;2022-07-18T08:35:29;34.20;31.50
70003;DHT22;57341;51.984;5.088;2022-07-18T08:37:56;34.30;31.80
70003;DHT22;57341;51.984;5.088;2022-07-18T08:40:23;34.20;31.20
70003;DHT22;57341;51.984;5.088;2022-07-18T08:42:51;34.40;31.80
70003;DHT22;57341;51.984;5.088;2022-07-18T08:45:42;34.30;30.70
70003;DHT22;57341;51.984;5.088;2022-07-18T08:48:12;34.20;31.60
70003;DHT22;57341;51.984;5.088;2022-07-18T08:50:45;33.80;30.70
70003;DHT22;57341;51.984;5.088;2022-07-18T08:53:13;33.60;31.60
70003;DHT22;57341;51.984;5.088;2022-07-18T08:55:40;33.70;30.20
70003;DHT22;57341;51.984;5.088;2022-07-18T08:58:08;33.70;32.80
70003;DHT22;57341;51.984;5.088;2022-07-18T09:00:56;34.10;32.30
70003;DHT22;57341;51.984;5.088;2022-07-18T09:03:27;34.30;31.60
70003;DHT22;57341;51.984;5.088;2022-07-18T09:06:13;34.50;30.30
70003;DHT22;57341;51.984;5.088;2022-07-18T09:09:00;34.50;30.80
70003;DHT22;57341;51.984;5.088;2022-07-18T09:11:27;34.30;30.90
70003;DHT22;57341;51.984;5.088;2022-07-18T09:17:02;34.10;29.30
70003;DHT22;57341;51.984;5.088;2022-07-18T09:19:29;33.90;29.60
70003;DHT22;57341;51.984;5.088;2022-07-18T09:22:18;33.90;31.10
70003;DHT22;57341;51.984;5.088;2022-07-18T09:24:56;34.20;29.90
70003;DHT22;57341;51.984;5.088;2022-07-18T09:27:32;34.20;29.90
70003;DHT22;57341;51.984;5.088;2022-07-18T09:30:16;34.50;29.60
70003;DHT22;57341;51.984;5.088;2022-07-18T09:32:51;34.80;30.50
70003;DHT22;57341;51.984;5.088;2022-07-18T09:35:26;35.20;29.80
70003;DHT22;57341;51.984;5.088;2022-07-18T09:37:54;35.90;29.90
70003;DHT22;57341;51.984;5.088;2022-07-18T09:40:24;36.20;28.80
70003;DHT22;57341;51.984;5.088;2022-07-18T09:42:57;36.40;28.00
70003;DHT22;57341;51.984;5.088;2022-07-18T09:45:34;36.80;28.60
70003;DHT22;57341;51.984;5.088;2022-07-18T09:48:07;37.20;28.20
70003;DHT22;57341;51.984;5.088;2022-07-18T09:50:43;37.50;27.10
70003;DHT22;57341;51.984;5.088;2022-07-18T09:53:23;37.70;27.80
70003;DHT22;57341;51.984;5.088;2022-07-18T09:56:08;38.10;27.30
70003;DHT22;57341;51.984;5.088;2022-07-18T09:58:50;37.90;26.70
70003;DHT22;57341;51.984;5.088;2022-07-18T10:01:17;37.80;26.60
70003;DHT22;57341;51.984;5.088;2022-07-18T10:03:44;37.50;26.50
70003;DHT22;57341;51.984;5.088;2022-07-18T10:06:11;37.50;27.20
70003;DHT22;57341;51.984;5.088;2022-07-18T10:08:39;37.60;27.10
70003;DHT22;57341;51.984;5.088;2022-07-18T10:11:07;37.60;26.30
70003;DHT22;57341;51.984;5.088;2022-07-18T10:13:35;37.20;25.30
70003;DHT22;57341;51.984;5.088;2022-07-18T10:16:03;36.80;25.30
70003;DHT22;57341;51.984;5.088;2022-07-18T10:18:33;36.40;26.40
70003;DHT22;57341;51.984;5.088;2022-07-18T10:21:09;36.50;26.20
70003;DHT22;57341;51.984;5.088;2022-07-18T10:26:10;36.60;25.70
70003;DHT22;57341;51.984;5.088;2022-07-18T10:31:35;35.90;25.90
70003;DHT22;57341;51.984;5.088;2022-07-18T10:36:39;35.80;27.50
70003;DHT22;57341;51.984;5.088;2022-07-18T10:39:11;36.30;26.70
70003;DHT22;57341;51.984;5.088;2022-07-18T10:57:35;38.80;25.70
70003;DHT22;57341;51.984;5.088;2022-07-18T11:00:13;38.70;25.90
70003;DHT22;57341;51.984;5.088;2022-07-18T11:02:46;38.40;25.20
70003;DHT22;57341;51.984;5.088;2022-07-18T11:23:47;38.20;24.90
70003;DHT22;57341;51.984;5.088;2022-07-18T11:26:20;38.20;24.40
70003;DHT22;57341;51.984;5.088;2022-07-18T11:29:04;38.00;24.50
70003;DHT22;57341;51.984;5.088;2022-07-18T11:31:42;38.40;25.40
70003;DHT22;57341;51.984;5.088;2022-07-18T11:34:09;38.60;25.20
70003;DHT22;57341;51.984;5.088;2022-07-18T11:36:39;39.30;26.30
70003;DHT22;57341;51.984;5.088;2022-07-18T11:39:07;39.80;23.90
70003;DHT22;57341;51.984;5.088;2022-07-18T11:41:37;39.70;21.60
70003;DHT22;57341;51.984;5.088;2022-07-18T11:44:16;39.10;21.60
70003;DHT22;57341;51.984;5.088;2022-07-18T11:46:45;38.30;21.50
70003;DHT22;57341;51.984;5.088;2022-07-18T11:49:12;38.10;22.10
70003;DHT22;57341;51.984;5.088;2022-07-18T11:51:44;38.40;22.50
70003;DHT22;57341;51.984;5.088;2022-07-18T11:54:12;38.80;22.50
70003;DHT22;57341;51.984;5.088;2022-07-18T11:56:53;39.30;21.40
70003;DHT22;57341;51.984;5.088;2022-07-18T11:59:22;39.10;21.60
70003;DHT22;57341;51.984;5.088;2022-07-18T12:01:50;38.80;21.70
70003;DHT22;57341;51.984;5.088;2022-07-18T12:04:21;38.60;22.10
70003;DHT22;57341;51.984;5.088;2022-07-18T12:09:46;38.80;22.10
70003;DHT22;57341;51.984;5.088;2022-07-18T12:12:15;39.00;23.00
70003;DHT22;57341;51.984;5.088;2022-07-18T12:14:54;39.00;22.10
70003;DHT22;57341;51.984;5.088;2022-07-18T12:17:21;39.00;21.70
70003;DHT22;57341;51.984;5.088;2022-07-18T12:19:48;39.00;21.10
70003;DHT22;57341;51.984;5.088;2022-07-18T12:22:18;39.00;22.00
70003;DHT22;57341;51.984;5.088;2022-07-18T12:24:53;38.90;21.80
70003;DHT22;57341;51.984;5.088;2022-07-18T12:30:17;38.80;22.10
70003;DHT22;57341;51.984;5.088;2022-07-18T12:32:57;39.10;22.50
70003;DHT22;57341;51.984;5.088;2022-07-18T12:35:30;39.30;22.50
70003;DHT22;57341;51.984;5.088;2022-07-18T12:38:17;39.20;22.60
70003;DHT22;57341;51.984;5.088;2022-07-18T12:43:40;39.30;22.30
70003;DHT22;57341;51.984;5.088;2022-07-18T12:46:08;39.40;22.50
70003;DHT22;57341;51.984;5.088;2022-07-18T12:48:37;39.60;21.90
70003;DHT22;57341;51.984;5.088;2022-07-18T12:51:07;39.60;22.50
70003;DHT22;57341;51.984;5.088;2022-07-18T12:53:36;39.70;22.70
70003;DHT22;57341;51.984;5.088;2022-07-18T12:56:04;39.90;22.90
70003;DHT22;57341;51.984;5.088;2022-07-18T12:58:31;40.10;22.90
70003;DHT22;57341;51.984;5.088;2022-07-18T13:01:01;40.30;22.90
70003;DHT22;57341;51.984;5.088;2022-07-18T13:03:34;40.40;21.90
70003;DHT22;57341;51.984;5.088;2022-07-18T13:06:01;40.30;21.10
70003;DHT22;57341;51.984;5.088;2022-07-18T13:08:29;40.30;20.90
70003;DHT22;57341;51.984;5.088;2022-07-18T13:10:58;39.80;21.00
70003;DHT22;57341;51.984;5.088;2022-07-18T13:13:25;39.40;19.30
70003;DHT22;57341;51.984;5.088;2022-07-18T13:15:52;39.10;19.50
70003;DHT22;57341;51.984;5.088;2022-07-18T13:18:19;39.40;19.60
70003;DHT22;57341;51.984;5.088;2022-07-18T13:20:47;39.50;20.00
70003;DHT22;57341;51.984;5.088;2022-07-18T13:23:14;39.20;19.50
70003;DHT22;57341;51.984;5.088;2022-07-18T13:25:43;39.10;19.60
70003;DHT22;57341;51.984;5.088;2022-07-18T13:28:10;38.90;19.70
70003;DHT22;57341;51.984;5.088;2022-07-18T13:30:38;38.70;20.10
70003;DHT22;57341;51.984;5.088;2022-07-18T13:33:05;38.70;20.70
70003;DHT22;57341;51.984;5.088;2022-07-18T13:35:32;39.40;20.40
70003;DHT22;57341;51.984;5.088;2022-07-18T13:38:00;39.70;20.70
70003;DHT22;57341;51.984;5.088;2022-07-18T13:40:27;40.00;20.00
70003;DHT22;57341;51.984;5.088;2022-07-18T13:42:55;39.90;19.40
70003;DHT22;57341;51.984;5.088;2022-07-18T13:45:22;39.80;19.70
70003;DHT22;57341;51.984;5.088;2022-07-18T13:47:49;39.70;19.80
70003;DHT22;57341;51.984;5.088;2022-07-18T13:50:16;39.50;19.90
70003;DHT22;57341;51.984;5.088;2022-07-18T13:52:44;39.20;20.20
70003;DHT22;57341;51.984;5.088;2022-07-18T13:55:11;38.90;19.90
70003;DHT22;57341;51.984;5.088;2022-07-18T13:57:38;39.10;21.00
70003;DHT22;57341;51.984;5.088;2022-07-18T14:00:06;39.20;21.00
70003;DHT22;57341;51.984;5.088;2022-07-18T14:02:35;39.30;21.10
70003;DHT22;57341;51.984;5.088;2022-07-18T14:05:03;39.50;21.30
70003;DHT22;57341;51.984;5.088;2022-07-18T14:07:44;39.90;21.40
70003;DHT22;57341;51.984;5.088;2022-07-18T14:10:13;40.10;21.40
70003;DHT22;57341;51.984;5.088;2022-07-18T14:12:40;40.10;20.60
70003;DHT22;57341;51.984;5.088;2022-07-18T14:15:08;40.30;21.40
70003;DHT22;57341;51.984;5.088;2022-07-18T14:17:36;40.70;21.40
70003;DHT22;57341;51.984;5.088;2022-07-18T14:20:03;40.90;21.10
70003;DHT22;57341;51.984;5.088;2022-07-18T14:22:32;41.20;21.10
70003;DHT22;57341;51.984;5.088;2022-07-18T14:24:59;41.60;22.30
70003;DHT22;57341;51.984;5.088;2022-07-18T14:27:26;41.50;21.70
70003;DHT22;57341;51.984;5.088;2022-07-18T14:29:53;41.60;20.20
70003;DHT22;57341;51.984;5.088;2022-07-18T14:32:31;41.40;20.70
70003;DHT22;57341;51.984;5.088;2022-07-18T14:34:59;41.10;20.60
70003;DHT22;57341;51.984;5.088;2022-07-18T14:37:26;41.00;20.90
70003;DHT22;57341;51.984;5.088;2022-07-18T14:39:53;41.50;21.10
70003;DHT22;57341;51.984;5.088;2022-07-18T14:42:23;41.60;21.00
70003;DHT22;57341;51.984;5.088;2022-07-18T14:44:51;41.90;20.70
70003;DHT22;57341;51.984;5.088;2022-07-18T14:47:18;42.30;21.10
70003;DHT22;57341;51.984;5.088;2022-07-18T14:49:46;42.10;20.40
70003;DHT22;57341;51.984;5.088;2022-07-18T14:52:13;41.60;20.70
70003;DHT22;57341;51.984;5.088;2022-07-18T14:54:40;41.60;20.90
70003;DHT22;57341;51.984;5.088;2022-07-18T14:57:08;41.90;20.50
70003;DHT22;57341;51.984;5.088;2022-07-18T14:59:35;41.50;20.50
70003;DHT22;57341;51.984;5.088;2022-07-18T15:02:03;41.20;20.80
70003;DHT22;57341;51.984;5.088;2022-07-18T15:04:33;41.40;21.20
70003;DHT22;57341;51.984;5.088;2022-07-18T15:07:01;41.50;21.20
70003;DHT22;57341;51.984;5.088;2022-07-18T15:09:28;40.90;23.00
70003;DHT22;57341;51.984;5.088;2022-07-18T15:12:01;40.90;24.40
70003;DHT22;57341;51.984;5.088;2022-07-18T15:14:28;41.00;24.60
70003;DHT22;57341;51.984;5.088;2022-07-18T15:16:55;41.10;23.00
70003;DHT22;57341;51.984;5.088;2022-07-18T15:19:23;41.40;23.50
70003;DHT22;57341;51.984;5.088;2022-07-18T15:21:56;41.50;24.60
70003;DHT22;57341;51.984;5.088;2022-07-18T15:24:32;41.30;24.20
70003;DHT22;57341;51.984;5.088;2022-07-18T15:27:40;41.20;24.10
70003;DHT22;57341;51.984;5.088;2022-07-18T15:30:07;41.00;24.20
70003;DHT22;57341;51.984;5.088;2022-07-18T15:32:54;41.50;24.60
70003;DHT22;57341;51.984;5.088;2022-07-18T15:35:22;41.50;24.50
70003;DHT22;57341;51.984;5.088;2022-07-18T15:37:49;41.60;22.10
70003;DHT22;57341;51.984;5.088;2022-07-18T15:40:22;41.30;22.10
70003;DHT22;57341;51.984;5.088;2022-07-18T15:42:50;41.10;24.10
70003;DHT22;57341;51.984;5.088;2022-07-18T15:45:18;40.90;22.30
70003;DHT22;57341;51.984;5.088;2022-07-18T15:47:45;40.50;24.90
70003;DHT22;57341;51.984;5.088;2022-07-18T15:50:12;40.10;25.50
70003;DHT22;57341;51.984;5.088;2022-07-18T15:52:41;40.30;23.30
70003;DHT22;57341;51.984;5.088;2022-07-18T15:55:08;40.40;24.90
70003;DHT22;57341;51.984;5.088;2022-07-18T15:57:35;40.40;22.20
70003;DHT22;57341;51.984;5.088;2022-07-18T16:00:04;40.70;22.20
70003;DHT22;57341;51.984;5.088;2022-07-18T16:02:38;40.80;22.40
70003;DHT22;57341;51.984;5.088;2022-07-18T16:05:05;41.00;22.40
70003;DHT22;57341;51.984;5.088;2022-07-18T16:07:32;40.90;24.30
70003;DHT22;57341;51.984;5.088;2022-07-18T16:09:59;40.90;24.90
70003;DHT22;57341;51.984;5.088;2022-07-18T16:12:26;41.10;24.70
70003;DHT22;57341;51.984;5.088;2022-07-18T16:14:53;41.50;22.60
70003;DHT22;57341;51.984;5.088;2022-07-18T16:17:21;41.30;23.20
70003;DHT22;57341;51.984;5.088;2022-07-18T16:19:48;41.00;24.80
70003;DHT22;57341;51.984;5.088;2022-07-18T16:22:15;41.10;23.90
70003;DHT22;57341;51.984;5.088;2022-07-18T16:24:43;41.00;25.40
70003;DHT22;57341;51.984;5.088;2022-07-18T16:27:11;41.00;22.80
70003;DHT22;57341;51.984;5.088;2022-07-18T16:29:38;41.40;24.60
70003;DHT22;57341;51.984;5.088;2022-07-18T16:32:05;41.60;24.10
70003;DHT22;57341;51.984;5.088;2022-07-18T16:34:32;41.80;24.00
70003;DHT22;57341;51.984;5.088;2022-07-18T16:36:59;41.80;21.90